• Join FlightAware (Why Join?)
  • Login
  • US Flag 
02:03PM EDT


 

Airport Tracker/Info


-or-


 

Live Flight TrackerFlight Track Log ✈ SWA662 ✈ 06-Jun-2013 ✈ KLAX - KDEN

Flight Track Log - Related Links

Times and Time Zones

All times are in EDT time to prevent confusion due to time zone crossing. See the SWA662 flight status page for this flight to view local times or setup timezone preferences in your user account.

Time Position Orientation Groundspeed Altitude Reporting Facility
EDT Latitude Longitude Course Direction KTS MPH feet Rate Location/Type
12:05AM 33.9453 -118.4617 231° Southwest 170 196 1,700  Level Los Angeles Center
12:06AM 33.9086 -118.5153 231° Southwest 239 275 3,200 1,980 Climbing Los Angeles Center
12:07AM 33.8322 -118.5089 176° South 270 311 5,800 2,700 Climbing Los Angeles Center
12:08AM 33.7550 -118.5164 185° South 281 323 8,900 2,460 Climbing Los Angeles Center
12:09AM 33.6856 -118.4836 159° South 297 342 10,900 1,740 Climbing Los Angeles Center
12:10AM 33.6531 -118.3800 111° Southeast 337 388 12,900 2,160 Climbing Los Angeles Center
12:11AM 33.6939 -118.2319 72° East 387 445 15,900 2,400 Climbing Los Angeles Center
12:12AM 33.7742 -118.1408 43° Northeast 404 465 17,900 1,980 Climbing Los Angeles Center
12:13AM 33.8586 -118.0444 43° Northeast 419 482 20,000 1,920 Climbing Los Angeles Center
12:14AM 33.9461 -117.9439 44° Northeast 433 498 21,900 1,980 Climbing Los Angeles Center
12:15AM 34.0542 -117.8167 44° Northeast 451 519 24,100 1,800 Climbing Los Angeles Center
12:16AM 34.1433 -117.7075 45° Northeast 457 526 25,700 1,380 Climbing Los Angeles Center
12:17AM 34.2300 -117.5858 49° Northeast 473 544 27,000 1,560 Climbing Los Angeles Center
12:18AM 34.3192 -117.4650 48° Northeast 481 554 28,900 1,560 Climbing Los Angeles Center
12:19AM 34.4114 -117.3389 48° Northeast 482 555 30,300 1,380 Climbing Los Angeles Center
12:20AM 34.5003 -117.2153 49° Northeast 486 559 31,800 1,500 Climbing Los Angeles Center
12:21AM 34.5886 -117.0947 48° Northeast 483 556 33,400 1,260 Climbing Los Angeles Center
12:22AM 34.6750 -116.9736 49° Northeast 478 550 34,500 780 Climbing Los Angeles Center
12:23AM 34.7814 -116.8278 48° Northeast 482 555 35,000 240 Climbing Los Angeles Center
12:24AM 34.8708 -116.7014 49° Northeast 493 567 35,000  Level Los Angeles Center
12:26AM 34.9611 -116.5769 48° Northeast 493 567 35,000  Level Los Angeles Center
12:27AM 35.0747 -116.4350 46° Northeast 492 566 35,000  Level Los Angeles Center
12:28AM 35.1678 -116.3169 46° Northeast 486 559 35,000  Level Los Angeles Center
12:29AM 35.2625 -116.1997 45° Northeast 485 558 35,000  Level Los Angeles Center
12:30AM 35.3553 -116.0811 46° Northeast 485 558 35,000  Level Los Angeles Center
12:31AM 35.4669 -115.9406 46° Northeast 482 555 35,000  Level Los Angeles Center
12:32AM 35.5508 -115.8353 46° Northeast 482 555 35,000  Level Los Angeles Center
12:33AM 35.6506 -115.6819 51° Northeast 483 556 35,000  Level Los Angeles Center
12:34AM 35.7086 -115.5333 64° Northeast 483 556 35,000  Level Los Angeles Center
12:35AM 35.7667 -115.3858 64° Northeast 483 556 35,000  Level Los Angeles Center
12:36AM 35.8242 -115.2381 64° Northeast 482 555 35,000  Level Los Angeles Center
12:37AM 35.8794 -115.0939 65° Northeast 473 544 35,000  Level Los Angeles Center
12:38AM 35.9358 -114.9461 65° Northeast 479 551 35,000  Level Los Angeles Center
12:39AM 36.0047 -114.7681 64° Northeast 482 555 35,000  Level Los Angeles Center
12:40AM 36.0600 -114.6197 65° Northeast 479 551 35,000  Level Los Angeles Center
12:41AM 36.1172 -114.4714 64° Northeast 479 551 35,000  Level Los Angeles Center
12:42AM 36.1736 -114.3222 65° Northeast 479 551 35,000  Level Los Angeles Center
12:43AM 36.2297 -114.1739 65° Northeast 477 549 35,000  Level Los Angeles Center
12:44AM 36.2850 -114.0253 65° Northeast 477 549 35,000  Level Los Angeles Center
12:45AM 36.3411 -113.8775 65° Northeast 475 547 35,000  Level Los Angeles Center
12:46AM 36.3961 -113.7297 65° Northeast 473 544 35,000  Level Los Angeles Center
12:47AM 36.4608 -113.5531 65° Northeast 470 541 35,000  Level Los Angeles Center
12:48AM 36.5131 -113.4142 65° Northeast 468 539 35,000  Level Los Angeles Center
12:49AM 36.5653 -113.2675 66° East 466 536 35,000  Level Los Angeles Center
12:50AM 36.6172 -113.1225 66° East 463 533 35,000  Level Los Angeles Center
12:51AM 36.6706 -112.9781 65° Northeast 462 532 35,000  Level Los Angeles Center
12:52AM 36.7325 -112.8058 66° East 458 527 35,000 360 Level Los Angeles Center
12:53AM 36.7844 -112.6628 66° East 456 525 35,800 960 Climbing Los Angeles Center
12:54AM 36.8369 -112.5175 66° East 460 529 37,000 540 Climbing Los Angeles Center
12:55AM 36.8883 -112.3722 66° East 461 531 37,000  Level Los Angeles Center
12:56AM 36.9400 -112.2272 66° East 461 531 37,000  Level Los Angeles Center
12:57AM 36.9919 -112.0797 66° East 464 534 37,000  Level Los Angeles Center
12:58AM 37.0436 -111.9353 66° East 461 531 37,000  Level Los Angeles Center
12:59AM 37.1019 -111.7647 67° East 449 517 37,000  Level Los Angeles Center
01:00AM 37.1508 -111.6258 66° East 441 507 37,000  Level Los Angeles Center
01:02AM 37.1978 -111.4875 67° East 435 501 37,000  Level Los Angeles Center
01:03AM 37.2464 -111.3497 66° East 434 499 37,000  Level Los Angeles Center
01:04AM 37.2939 -111.2119 67° East 433 498 37,000  Level Los Angeles Center
01:05AM 37.3478 -111.0483 67° East 428 493 37,000  Level Denver Center
01:06AM 37.3953 -110.9100 67° East 431 496 37,000  Level Denver Center
01:07AM 37.4417 -110.7731 67° East 428 493 37,000  Level Denver Center
01:08AM 37.4878 -110.6342 67° East 430 495 37,000  Level Denver Center
01:09AM 37.5361 -110.4864 68° East 432 497 37,000  Level Denver Center
01:10AM 37.5806 -110.3531 67° East 432 497 37,000  Level Denver Center
01:11AM 37.6325 -110.1969 67° East 432 497 37,000  Level Denver Center
01:12AM 37.6761 -110.0617 68° East 433 498 37,000  Level Denver Center
01:13AM 37.7206 -109.9247 68° East 439 505 37,000  Level Denver Center
01:14AM 37.7731 -109.7650 67° East 440 506 37,000  Level Denver Center
01:15AM 37.8178 -109.6292 67° East 438 504 37,000  Level Denver Center
01:16AM 37.8617 -109.4911 68° East 440 506 37,000  Level Denver Center
01:17AM 37.9053 -109.3547 68° East 438 504 37,000  Level Denver Center
01:18AM 37.9564 -109.1953 68° East 438 504 37,000  Level Denver Center
01:19AM 38.0000 -109.0594 68° East 436 502 37,000  Level Denver Center
01:20AM 38.0428 -108.9225 68° East 436 502 37,000  Level Denver Center
01:21AM 38.0942 -108.7581 68° East 442 509 37,000  Level Denver Center
01:22AM 38.1361 -108.6192 69° East 442 509 37,000  Level Denver Center
01:23AM 38.1803 -108.4811 68° East 441 507 37,000  Level Denver Center
01:24AM 38.2306 -108.3206 68° East 440 506 37,000  Level Denver Center
01:25AM 38.2731 -108.1808 69° East 442 509 37,000  Level Denver Center
01:26AM 38.3158 -108.0414 69° East 442 509 37,000  Level Denver Center
01:27AM 38.3744 -107.8858 64° Northeast 439 505 37,000  Level Denver Center
01:28AM 38.4333 -107.7553 60° Northeast 445 512 37,000  Level Denver Center
01:29AM 38.4900 -107.6250 61° Northeast 442 509 37,000  Level Denver Center
01:30AM 38.5469 -107.4942 61° Northeast 441 507 37,000  Level Denver Center
01:31AM 38.6150 -107.3389 61° Northeast 446 513 37,000  Level Denver Center
01:32AM 38.6714 -107.2072 61° Northeast 445 512 37,000  Level Denver Center
01:33AM 38.7303 -107.0717 61° Northeast 449 517 37,000  Level Denver Center
01:34AM 38.7886 -106.9328 62° Northeast 446 513 37,000  Level Denver Center
01:35AM 38.8481 -106.7942 61° Northeast 446 513 37,000  Level Denver Center
01:36AM 38.9081 -106.6528 61° Northeast 443 510 37,000  Level Denver Center
01:37AM 38.9739 -106.4989 61° Northeast 440 506 37,000 -840 Level Denver Center
01:38AM 39.0286 -106.3678 62° Northeast 437 503 35,400 -2,220 Descending Denver Center
01:39AM 39.0828 -106.2361 62° Northeast 436 502 32,600 -3,060 Descending Denver Center
01:40AM 39.1464 -106.0817 62° Northeast 442 509 29,300 -2,880 Descending Denver Center
01:41AM 39.2058 -105.9422 61° Northeast 444 511 26,900 -2,340 Descending Denver Center
01:42AM 39.2636 -105.8025 62° Northeast 441 507 24,600 -1,860 Descending Denver Center
01:43AM 39.3283 -105.6711 57° Northeast 432 497 23,200 -1,200 Descending Denver Center
01:44AM 39.3969 -105.5436 55° Northeast 432 497 22,300 -1,080 Descending Denver Center
01:45AM 39.4647 -105.4203 55° Northeast 429 494 21,100 -2,040 Descending Denver Center
01:46AM 39.5308 -105.2975 55° Northeast 420 483 18,300 -2,820 Descending Denver Center
01:47AM 39.5983 -105.1681 56° Northeast 405 466 15,500 -2,700 Descending Denver Center
01:48AM 39.6606 -105.0544 55° Northeast 387 445 12,900 -2,280 Descending Denver Center
01:49AM 39.7206 -104.9428 55° Northeast 380 437 11,000 -960 Descending Denver Center
01:50AM 39.7733 -104.8411 56° Northeast 344 396 11,000 -480 Level Denver Center
01:51AM 39.8489 -104.8092 18° North 294 338 10,100 -900 Descending Denver Center
01:52AM 39.9239 -104.8061 North 267 307 9,300 -900 Descending Denver Center
01:53AM 39.9825 -104.7911 11° North 211 243 8,300 -1,080 Descending Denver Center
01:54AM 39.9867 -104.7275 85° East 177 204 7,200 -1,020 Descending Denver Center
01:55AM 39.9539 -104.6981 145° Southeast 148 170 6,300 -780 Descending Denver Center
01:56AM 39.9119 -104.6958 178° South 149 171 5,700 -540 Descending Denver Center
01:57AM 39.8756 -104.6961 180° South 140 161 5,300 -420 Descending Denver Center
01:59AM 39.8617 -104.6732 90° East  Level Estimated
02:06AM 39.8617 -104.6732 90° East  Level Estimated
02:07AM 39.8617 -104.6732 90° East  Level Estimated